createdAt,value
2018-07-11T00:00:30.776Z,1003.07
2018-07-11T00:01:30.798Z,1003.04
2018-07-11T00:02:30.822Z,1003.08
2018-07-11T00:03:30.841Z,1003.04
2018-07-11T00:04:30.865Z,1003.03
2018-07-11T00:05:30.884Z,1003.04
2018-07-11T00:06:30.905Z,1003.01
2018-07-11T00:07:30.927Z,1003.04
2018-07-11T00:08:30.947Z,1003
2018-07-11T00:09:30.970Z,1003.02
2018-07-11T00:10:30.990Z,1003
2018-07-11T00:11:31.011Z,1002.98
2018-07-11T00:12:31.032Z,1002.95
2018-07-11T00:13:31.054Z,1002.93
2018-07-11T00:14:31.074Z,1002.95
2018-07-11T00:15:31.095Z,1002.97
2018-07-11T00:16:31.119Z,1002.95
2018-07-11T00:17:31.139Z,1002.92
2018-07-11T00:18:31.159Z,1002.88
2018-07-11T00:19:31.181Z,1002.85
2018-07-11T00:20:31.202Z,1002.9
2018-07-11T00:21:31.225Z,1002.85
2018-07-11T00:22:31.244Z,1002.86
2018-07-11T00:23:31.266Z,1002.85
2018-07-11T00:24:31.291Z,1002.83
2018-07-11T00:25:31.307Z,1002.84
2018-07-11T00:26:31.328Z,1002.81
2018-07-11T00:27:31.349Z,1002.81
2018-07-11T00:28:31.373Z,1002.81
2018-07-11T00:29:31.404Z,1002.81
2018-07-11T00:30:31.416Z,1002.8
2018-07-11T00:31:31.436Z,1002.79
2018-07-11T00:32:31.456Z,1002.8
2018-07-11T00:33:31.483Z,1002.8
2018-07-11T00:34:31.504Z,1002.81
2018-07-11T00:35:31.526Z,1002.81
2018-07-11T00:36:31.541Z,1002.83
2018-07-11T00:37:31.614Z,1002.81
2018-07-11T00:38:31.584Z,1002.79
2018-07-11T00:39:31.605Z,1002.75
2018-07-11T00:40:31.626Z,1002.76
2018-07-11T00:41:31.647Z,1002.77
2018-07-11T00:42:31.670Z,1002.74
2018-07-11T00:43:31.689Z,1002.72
2018-07-11T00:44:31.710Z,1002.75
2018-07-11T00:45:31.732Z,1002.73
2018-07-11T00:46:31.753Z,1002.72
2018-07-11T00:47:31.773Z,1002.74
2018-07-11T00:48:31.794Z,1002.75
2018-07-11T00:49:31.816Z,1002.7
2018-07-11T00:50:31.841Z,1002.69
2018-07-11T00:51:31.858Z,1002.73
2018-07-11T00:52:31.879Z,1002.74
2018-07-11T00:53:31.899Z,1002.73
2018-07-11T00:54:31.919Z,1002.7
2018-07-11T00:55:31.941Z,1002.67
2018-07-11T00:56:31.963Z,1002.67
2018-07-11T00:57:31.982Z,1002.68
2018-07-11T00:58:32.007Z,1002.67
2018-07-11T00:59:32.026Z,1002.68
2018-07-11T01:00:32.046Z,1002.66
2018-07-11T01:01:32.068Z,1002.65
2018-07-11T01:02:32.087Z,1002.66
2018-07-11T01:03:32.108Z,1002.66
2018-07-11T01:04:32.130Z,1002.62
2018-07-11T01:05:32.151Z,1002.62
2018-07-11T01:06:32.171Z,1002.63
2018-07-11T01:07:32.192Z,1002.62
2018-07-11T01:08:32.216Z,1002.63
2018-07-11T01:09:32.235Z,1002.6
2018-07-11T01:10:32.254Z,1002.57
2018-07-11T01:11:32.277Z,1002.6
2018-07-11T01:12:32.297Z,1002.56
2018-07-11T01:13:32.317Z,1002.59
2018-07-11T01:14:32.338Z,1002.55
2018-07-11T01:15:32.358Z,1002.53
2018-07-11T01:16:32.379Z,1002.54
2018-07-11T01:17:32.400Z,1002.52
2018-07-11T01:18:32.421Z,1002.54
2018-07-11T01:19:32.442Z,1002.51
2018-07-11T01:20:32.494Z,1002.54
2018-07-11T01:21:32.484Z,1002.51
2018-07-11T01:22:32.506Z,1002.5
2018-07-11T01:23:32.525Z,1002.46
2018-07-11T01:24:32.545Z,1002.5
2018-07-11T01:25:32.568Z,1002.48
2018-07-11T01:26:32.588Z,1002.42
2018-07-11T01:27:32.607Z,1002.41
2018-07-11T01:28:32.628Z,1002.43
2018-07-11T01:29:32.649Z,1002.44
2018-07-11T01:30:32.671Z,1002.39
2018-07-11T01:31:32.692Z,1002.4
2018-07-11T01:32:32.711Z,1002.4
2018-07-11T01:33:32.732Z,1002.41
2018-07-11T01:34:32.753Z,1002.38
2018-07-11T01:35:32.773Z,1002.38
2018-07-11T01:36:32.793Z,1002.31
2018-07-11T01:37:32.816Z,1002.34
2018-07-11T01:38:32.834Z,1002.34
2018-07-11T01:39:32.856Z,1002.35
2018-07-11T01:40:32.876Z,1002.31
2018-07-11T01:41:32.901Z,1002.31
2018-07-11T01:42:32.917Z,1002.35
2018-07-11T01:43:32.937Z,1002.3
2018-07-11T01:44:32.959Z,1002.3
2018-07-11T01:45:32.979Z,1002.31
2018-07-11T01:46:32.998Z,1002.27
2018-07-11T01:47:33.020Z,1002.29
2018-07-11T01:48:33.043Z,1002.3
2018-07-11T01:49:33.060Z,1002.29
2018-07-11T01:50:33.081Z,1002.29
2018-07-11T01:51:33.103Z,1002.32
2018-07-11T01:52:33.122Z,1002.32
2018-07-11T01:53:33.146Z,1002.28
2018-07-11T01:54:33.164Z,1002.31
2018-07-11T01:55:33.184Z,1002.3
2018-07-11T01:56:33.207Z,1002.29
2018-07-11T01:57:33.230Z,1002.29
2018-07-11T01:58:33.245Z,1002.32
2018-07-11T01:59:33.266Z,1002.34
2018-07-11T02:00:33.295Z,1002.32
2018-07-11T02:01:33.315Z,1002.36
2018-07-11T02:02:33.331Z,1002.35
2018-07-11T02:03:33.348Z,1002.32
2018-07-11T02:04:33.369Z,1002.36
2018-07-11T02:05:33.389Z,1002.33
2018-07-11T02:06:33.410Z,1002.32
2018-07-11T02:07:33.430Z,1002.31
2018-07-11T02:08:33.510Z,1002.29
2018-07-11T02:09:33.472Z,1002.35
2018-07-11T02:10:33.493Z,1002.35
2018-07-11T02:11:33.512Z,1002.3
2018-07-11T02:12:33.534Z,1002.33
2018-07-11T02:13:33.554Z,1002.31
2018-07-11T02:14:33.575Z,1002.37
2018-07-11T02:15:33.595Z,1002.34
2018-07-11T02:16:33.618Z,1002.33
2018-07-11T02:17:33.636Z,1002.35
2018-07-11T02:18:33.654Z,1002.36
2018-07-11T02:19:33.675Z,1002.33
2018-07-11T02:20:33.697Z,1002.32
2018-07-11T02:21:33.717Z,1002.34
2018-07-11T02:22:33.736Z,1002.38
2018-07-11T02:23:33.757Z,1002.35
2018-07-11T02:24:33.778Z,1002.35
2018-07-11T02:25:33.801Z,1002.32
2018-07-11T02:26:33.818Z,1002.38
2018-07-11T02:27:33.838Z,1002.33
2018-07-11T02:28:33.859Z,1002.33
2018-07-11T02:29:33.881Z,1002.38
2018-07-11T02:30:33.899Z,1002.36
2018-07-11T02:31:33.921Z,1002.33
2018-07-11T02:32:33.943Z,1002.35
2018-07-11T02:33:33.960Z,1002.33
2018-07-11T02:34:33.986Z,1002.38
2018-07-11T02:35:34.002Z,1002.37
2018-07-11T02:36:34.029Z,1002.37
2018-07-11T02:37:34.043Z,1002.35
2018-07-11T02:38:34.063Z,1002.39
2018-07-11T02:39:34.084Z,1002.4
2018-07-11T02:40:34.102Z,1002.4
2018-07-11T02:41:34.123Z,1002.36
2018-07-11T02:42:34.142Z,1002.36
2018-07-11T02:43:34.164Z,1002.34
2018-07-11T02:44:34.184Z,1002.36
2018-07-11T02:45:34.205Z,1002.34
2018-07-11T02:46:34.226Z,1002.36
2018-07-11T02:47:34.256Z,1002.34
2018-07-11T02:48:34.269Z,1002.34
2018-07-11T02:49:34.288Z,1002.33
2018-07-11T02:50:34.312Z,1002.34
2018-07-11T02:51:34.324Z,1002.34
2018-07-11T02:52:34.345Z,1002.33
2018-07-11T02:53:34.367Z,1002.36
2018-07-11T02:54:34.385Z,1002.34
2018-07-11T02:55:34.405Z,1002.32
2018-07-11T02:56:34.427Z,1002.34
2018-07-11T02:57:34.446Z,1002.3
2018-07-11T02:58:34.467Z,1002.34
2018-07-11T02:59:34.486Z,1002.32
2018-07-11T03:00:34.506Z,1002.33
2018-07-11T03:01:34.575Z,1002.29
2018-07-11T03:02:34.547Z,1002.3
2018-07-11T03:03:34.566Z,1002.27
2018-07-11T03:04:34.587Z,1002.32
2018-07-11T03:05:34.609Z,1002.31
2018-07-11T03:06:34.626Z,1002.36
2018-07-11T03:07:34.647Z,1002.33
2018-07-11T03:08:34.667Z,1002.35
2018-07-11T03:09:34.687Z,1002.36
2018-07-11T03:10:34.707Z,1002.37
2018-07-11T03:11:34.728Z,1002.38
2018-07-11T03:12:34.748Z,1002.42
2018-07-11T03:13:34.766Z,1002.4
2018-07-11T03:14:34.789Z,1002.4
2018-07-11T03:15:34.807Z,1002.38
2018-07-11T03:16:34.828Z,1002.38
2018-07-11T03:17:34.849Z,1002.4
2018-07-11T03:18:34.870Z,1002.39
2018-07-11T03:19:34.889Z,1002.36
2018-07-11T03:20:34.906Z,1002.36
2018-07-11T03:21:34.927Z,1002.38
2018-07-11T03:22:35.040Z,1002.35
2018-07-11T03:23:35.061Z,1002.35
2018-07-11T03:24:35.070Z,1002.29
2018-07-11T03:25:35.097Z,1002.31
2018-07-11T03:26:35.098Z,1002.34
2018-07-11T03:27:35.134Z,1002.28
2018-07-11T03:28:35.150Z,1002.3
2018-07-11T03:29:35.161Z,1002.31
2018-07-11T03:30:35.171Z,1002.28
2018-07-11T03:31:35.128Z,1002.29
2018-07-11T03:32:35.169Z,1002.3
2018-07-11T03:33:35.167Z,1002.33
2018-07-11T03:34:35.187Z,1002.34
2018-07-11T03:35:35.209Z,1002.35
2018-07-11T03:36:35.227Z,1002.34
2018-07-11T03:37:35.246Z,1002.34
2018-07-11T03:38:35.269Z,1002.32
2018-07-11T03:39:35.286Z,1002.36
2018-07-11T03:40:35.307Z,1002.36
2018-07-11T03:41:35.327Z,1002.41
2018-07-11T03:42:35.347Z,1002.36
2018-07-11T03:43:35.369Z,1002.37
2018-07-11T03:44:35.388Z,1002.35
2018-07-11T03:45:35.407Z,1002.39
2018-07-11T03:46:35.427Z,1002.38
2018-07-11T03:47:35.448Z,1002.35
2018-07-11T03:48:35.467Z,1002.4
2018-07-11T03:49:35.487Z,1002.39
2018-07-11T03:50:35.507Z,1002.38
2018-07-11T03:51:35.530Z,1002.41
2018-07-11T03:52:35.548Z,1002.42
2018-07-11T03:53:35.565Z,1002.42
2018-07-11T03:54:35.587Z,1002.41
2018-07-11T03:55:35.607Z,1002.4
2018-07-11T03:56:35.626Z,1002.41
2018-07-11T03:57:35.647Z,1002.38
2018-07-11T03:58:35.665Z,1002.41
2018-07-11T03:59:35.686Z,1002.42
2018-07-11T04:00:35.706Z,1002.43
2018-07-11T04:01:35.727Z,1002.43
2018-07-11T04:02:35.747Z,1002.42
2018-07-11T04:03:35.765Z,1002.45
2018-07-11T04:04:35.793Z,1002.45
2018-07-11T04:05:35.805Z,1002.48
2018-07-11T04:06:35.826Z,1002.47
2018-07-11T04:07:35.855Z,1002.51
2018-07-11T04:08:35.864Z,1002.51
2018-07-11T04:09:35.886Z,1002.51
2018-07-11T04:10:35.908Z,1002.52
2018-07-11T04:11:35.932Z,1002.5
2018-07-11T04:12:35.943Z,1002.49
2018-07-11T04:13:35.964Z,1002.47
2018-07-11T04:14:35.985Z,1002.5
2018-07-11T04:15:36.004Z,1002.5
2018-07-11T04:16:36.023Z,1002.48
2018-07-11T04:17:36.043Z,1002.51
2018-07-11T04:18:36.064Z,1002.55
2018-07-11T04:19:36.082Z,1002.56
2018-07-11T04:20:36.105Z,1002.56
2018-07-11T04:21:36.122Z,1002.56
2018-07-11T04:22:36.145Z,1002.58
2018-07-11T04:23:36.163Z,1002.54
2018-07-11T04:24:36.190Z,1002.53
2018-07-11T04:25:36.202Z,1002.54
2018-07-11T04:26:36.221Z,1002.55
2018-07-11T04:27:36.241Z,1002.53
2018-07-11T04:28:36.265Z,1002.5
2018-07-11T04:29:36.281Z,1002.54
2018-07-11T04:30:36.304Z,1002.51
2018-07-11T04:31:36.322Z,1002.53
2018-07-11T04:32:36.344Z,1002.56
2018-07-11T04:33:36.363Z,1002.54
2018-07-11T04:34:36.410Z,1002.55
2018-07-11T04:35:36.402Z,1002.56
2018-07-11T04:36:36.420Z,1002.59
2018-07-11T04:37:36.440Z,1002.51
2018-07-11T04:38:36.459Z,1002.53
2018-07-11T04:39:36.480Z,1002.48
2018-07-11T04:40:36.507Z,1002.46
2018-07-11T04:41:36.519Z,1002.49
2018-07-11T04:42:36.593Z,1002.46
2018-07-11T04:43:36.562Z,1002.5
2018-07-11T04:44:36.580Z,1002.47
2018-07-11T04:45:36.598Z,1002.45
2018-07-11T04:46:36.618Z,1002.47
2018-07-11T04:47:36.639Z,1002.45
2018-07-11T04:48:36.660Z,1002.44
2018-07-11T04:49:36.678Z,1002.47
2018-07-11T04:50:36.701Z,1002.47
2018-07-11T04:51:36.721Z,1002.46
2018-07-11T04:52:36.782Z,1002.46
2018-07-11T04:53:36.758Z,1002.49
2018-07-11T04:54:36.780Z,1002.47
2018-07-11T04:55:36.797Z,1002.48
2018-07-11T04:56:36.819Z,1002.47
2018-07-11T04:57:36.841Z,1002.47
2018-07-11T04:58:36.857Z,1002.5
2018-07-11T04:59:36.875Z,1002.49
2018-07-11T05:00:36.898Z,1002.5
2018-07-11T05:01:36.916Z,1002.52
2018-07-11T05:02:36.938Z,1002.52
2018-07-11T05:03:36.957Z,1002.52
2018-07-11T05:04:36.988Z,1002.55
2018-07-11T05:05:36.998Z,1002.55
2018-07-11T05:06:37.017Z,1002.56
2018-07-11T05:07:37.037Z,1002.58
2018-07-11T05:08:37.055Z,1002.61
2018-07-11T05:09:37.075Z,1002.6
2018-07-11T05:10:37.095Z,1002.6
2018-07-11T05:11:37.118Z,1002.6
2018-07-11T05:12:37.136Z,1002.63
2018-07-11T05:13:37.155Z,1002.62
2018-07-11T05:14:37.174Z,1002.62
2018-07-11T05:15:37.195Z,1002.61
2018-07-11T05:16:37.214Z,1002.62
2018-07-11T05:17:37.235Z,1002.62
2018-07-11T05:18:37.254Z,1002.6
2018-07-11T05:19:37.279Z,1002.64
2018-07-11T05:20:37.296Z,1002.66
2018-07-11T05:21:37.315Z,1002.68
2018-07-11T05:22:37.335Z,1002.71
2018-07-11T05:23:37.355Z,1002.69
2018-07-11T05:24:37.375Z,1002.63
2018-07-11T05:25:37.394Z,1002.67
2018-07-11T05:26:37.414Z,1002.65
2018-07-11T05:27:37.442Z,1002.64
2018-07-11T05:28:37.454Z,1002.63
2018-07-11T05:29:37.477Z,1002.67
2018-07-11T05:30:37.496Z,1002.68
2018-07-11T05:31:37.514Z,1002.65
2018-07-11T05:32:37.534Z,1002.67
2018-07-11T05:33:37.554Z,1002.63
2018-07-11T05:34:37.578Z,1002.66
2018-07-11T05:35:37.596Z,1002.67
2018-07-11T05:36:37.613Z,1002.7
2018-07-11T05:37:37.634Z,1002.72
2018-07-11T05:38:37.656Z,1002.74
2018-07-11T05:39:37.747Z,1002.78
2018-07-11T05:40:37.694Z,1002.82
2018-07-11T05:41:37.714Z,1002.84
2018-07-11T05:42:37.735Z,1002.85
2018-07-11T05:43:37.755Z,1002.88
2018-07-11T05:44:37.775Z,1002.87
2018-07-11T05:45:37.795Z,1002.87
2018-07-11T05:46:37.816Z,1002.86
2018-07-11T05:47:37.834Z,1002.83
2018-07-11T05:48:37.854Z,1002.83
2018-07-11T05:49:37.875Z,1002.84
2018-07-11T05:50:37.899Z,1002.82
2018-07-11T05:51:37.914Z,1002.85
2018-07-11T05:52:37.935Z,1002.81
2018-07-11T05:53:37.956Z,1002.85
2018-07-11T05:54:37.975Z,1002.84
2018-07-11T05:55:38.012Z,1002.87
2018-07-11T05:56:38.017Z,1002.86
2018-07-11T05:57:38.040Z,1002.84
2018-07-11T05:58:38.056Z,1002.84
2018-07-11T05:59:38.076Z,1002.85
2018-07-11T06:00:38.096Z,1002.85
2018-07-11T06:01:38.117Z,1002.89
2018-07-11T06:02:38.155Z,1002.85
2018-07-11T06:03:38.157Z,1002.83
2018-07-11T06:04:38.177Z,1002.85
2018-07-11T06:05:38.198Z,1002.85
2018-07-11T06:06:38.218Z,1002.86
2018-07-11T06:07:38.281Z,1002.86
2018-07-11T06:08:38.259Z,1002.89
2018-07-11T06:09:38.278Z,1002.91
2018-07-11T06:10:38.298Z,1002.92
2018-07-11T06:11:38.340Z,1002.92
2018-07-11T06:12:38.340Z,1002.93
2018-07-11T06:13:38.401Z,1002.94
2018-07-11T06:14:38.380Z,1002.95
2018-07-11T06:15:38.402Z,1002.95
2018-07-11T06:16:38.422Z,1003
2018-07-11T06:17:38.443Z,1003
2018-07-11T06:18:38.574Z,1002.97
2018-07-11T06:19:38.489Z,1002.96
2018-07-11T06:20:38.626Z,1002.98
2018-07-11T06:21:38.634Z,1002.97
2018-07-11T06:22:38.642Z,1002.95
2018-07-11T06:23:38.580Z,1002.93
2018-07-11T06:24:38.599Z,1002.96
2018-07-11T06:25:38.608Z,1002.96
2018-07-11T06:26:38.726Z,1002.97
2018-07-11T06:27:38.766Z,1002.95
2018-07-11T06:28:38.774Z,1002.97
2018-07-11T06:29:38.784Z,1002.98
2018-07-11T06:30:38.803Z,1002.98
2018-07-11T06:31:38.731Z,1002.97
2018-07-11T06:32:38.752Z,1002.96
2018-07-11T06:33:38.885Z,1003
2018-07-11T06:34:38.878Z,1002.97
2018-07-11T06:35:38.897Z,1002.99
2018-07-11T06:36:38.910Z,1002.98
2018-07-11T06:37:38.944Z,1003.01
2018-07-11T06:38:38.961Z,1003.03
2018-07-11T06:39:38.947Z,1003.02
2018-07-11T06:40:38.920Z,1003.02
2018-07-11T06:41:38.937Z,1003.04
2018-07-11T06:42:38.957Z,1003.05
2018-07-11T06:43:38.978Z,1003.03
2018-07-11T06:44:39.000Z,1003.07
2018-07-11T06:45:39.021Z,1003.09
2018-07-11T06:46:39.039Z,1003.08
2018-07-11T06:47:39.063Z,1003.1
2018-07-11T06:48:39.082Z,1003.09
2018-07-11T06:49:39.101Z,1003.13
2018-07-11T06:50:39.123Z,1003.15
2018-07-11T06:51:39.149Z,1003.12
2018-07-11T06:52:39.165Z,1003.13
2018-07-11T06:53:39.186Z,1003.17
2018-07-11T06:54:39.209Z,1003.17
2018-07-11T06:55:39.229Z,1003.14
2018-07-11T06:56:39.249Z,1003.13
2018-07-11T06:57:39.337Z,1003.1
2018-07-11T06:58:39.291Z,1003.08
2018-07-11T06:59:39.313Z,1003.08
2018-07-11T07:00:39.335Z,1003.1
2018-07-11T07:01:39.355Z,1003.08
2018-07-11T07:02:39.385Z,1003.08
2018-07-11T07:03:39.464Z,1003.08
2018-07-11T07:04:39.418Z,1003.11
2018-07-11T07:05:39.443Z,1003.09
2018-07-11T07:06:39.461Z,1003.09
2018-07-11T07:07:39.481Z,1003.1
2018-07-11T07:08:39.503Z,1003.08
2018-07-11T07:09:39.524Z,1003.08
2018-07-11T07:10:39.546Z,1003.11
2018-07-11T07:11:39.581Z,1003.09
2018-07-11T07:12:39.588Z,1003.11
2018-07-11T07:13:39.726Z,1003.12
2018-07-11T07:14:39.739Z,1003.13
2018-07-11T07:15:39.743Z,1003.12
2018-07-11T07:16:39.722Z,1003.15
2018-07-11T07:17:39.702Z,1003.1
2018-07-11T07:18:39.810Z,1003.11
2018-07-11T07:19:39.837Z,1003.11
2018-07-11T07:20:39.846Z,1003.13
2018-07-11T07:21:39.842Z,1003.07
2018-07-11T07:22:39.893Z,1003.06
2018-07-11T07:23:39.822Z,1003.05
2018-07-11T07:24:39.845Z,1003.05
2018-07-11T07:25:39.865Z,1003.05
2018-07-11T07:26:39.889Z,1003.03
2018-07-11T07:27:39.909Z,1003.02
2018-07-11T07:28:39.930Z,1002.99
2018-07-11T07:29:39.951Z,1002.95
2018-07-11T07:30:39.973Z,1003
2018-07-11T07:31:39.996Z,1002.98
2018-07-11T07:32:40.017Z,1002.93
2018-07-11T07:33:40.041Z,1002.95
2018-07-11T07:34:40.109Z,1002.92
2018-07-11T07:35:40.083Z,1002.9
2018-07-11T07:36:40.131Z,1002.91
2018-07-11T07:37:40.125Z,1002.89
2018-07-11T07:38:40.147Z,1002.91
2018-07-11T07:39:40.168Z,1002.88
2018-07-11T07:40:40.189Z,1002.89
2018-07-11T07:41:40.213Z,1002.91
2018-07-11T07:42:40.234Z,1002.88
2018-07-11T07:43:40.256Z,1002.84
2018-07-11T07:44:40.317Z,1002.81
2018-07-11T07:45:40.300Z,1002.8
2018-07-11T07:46:40.322Z,1002.8
2018-07-11T07:47:40.343Z,1002.8
2018-07-11T07:48:40.364Z,1002.77
2018-07-11T07:49:40.386Z,1002.72
2018-07-11T07:50:40.408Z,1002.78
2018-07-11T07:51:40.429Z,1002.74
2018-07-11T07:52:40.451Z,1002.77
2018-07-11T07:53:40.473Z,1002.76
2018-07-11T07:54:40.496Z,1002.77
2018-07-11T07:55:40.523Z,1002.78
2018-07-11T07:56:40.545Z,1002.8
2018-07-11T07:57:40.580Z,1002.8
2018-07-11T07:58:40.583Z,1002.79
2018-07-11T07:59:40.605Z,1002.78
2018-07-11T08:00:40.629Z,1002.77
2018-07-11T08:01:40.650Z,1002.82
2018-07-11T08:02:40.671Z,1002.78
2018-07-11T08:03:40.693Z,1002.82
2018-07-11T08:04:40.716Z,1002.78
2018-07-11T08:05:40.739Z,1002.78
2018-07-11T08:06:40.759Z,1002.76
2018-07-11T08:07:40.784Z,1002.75
2018-07-11T08:08:40.805Z,1002.74
2018-07-11T08:09:40.828Z,1002.73
2018-07-11T08:10:40.849Z,1002.76
2018-07-11T08:11:40.871Z,1002.79
2018-07-11T08:12:40.965Z,1002.75
2018-07-11T08:13:40.916Z,1002.73
2018-07-11T08:14:40.937Z,1002.77
2018-07-11T08:15:40.960Z,1002.76
2018-07-11T08:16:40.987Z,1002.77
2018-07-11T08:17:41.008Z,1002.8
2018-07-11T08:18:41.028Z,1002.81
2018-07-11T08:19:41.051Z,1002.8
2018-07-11T08:20:41.073Z,1002.82
2018-07-11T08:21:41.097Z,1002.82
2018-07-11T08:22:41.118Z,1002.83
2018-07-11T08:23:41.143Z,1002.84
2018-07-11T08:24:41.163Z,1002.85
2018-07-11T08:25:41.187Z,1002.87
2018-07-11T08:26:41.208Z,1002.82
2018-07-11T08:27:41.232Z,1002.83
2018-07-11T08:28:41.254Z,1002.84
2018-07-11T08:29:41.277Z,1002.83
2018-07-11T08:30:41.301Z,1002.82
2018-07-11T08:31:41.321Z,1002.82
2018-07-11T08:32:41.344Z,1002.81
2018-07-11T08:33:41.367Z,1002.82
2018-07-11T08:34:41.464Z,1002.79
2018-07-11T08:35:41.414Z,1002.82
2018-07-11T08:36:41.436Z,1002.82
2018-07-11T08:37:41.459Z,1002.8
2018-07-11T08:38:41.481Z,1002.81
2018-07-11T08:39:41.509Z,1002.78
2018-07-11T08:40:41.527Z,1002.8
2018-07-11T08:41:41.551Z,1002.79
2018-07-11T08:42:41.573Z,1002.8
2018-07-11T08:43:41.596Z,1002.79
2018-07-11T08:44:41.619Z,1002.81
2018-07-11T08:45:41.644Z,1002.8
2018-07-11T08:46:41.667Z,1002.81
2018-07-11T08:47:41.753Z,1002.86
2018-07-11T08:48:41.713Z,1002.84
2018-07-11T08:49:41.735Z,1002.87
2018-07-11T08:50:41.758Z,1002.87
2018-07-11T08:51:41.781Z,1002.88
2018-07-11T08:52:41.807Z,1002.86
2018-07-11T08:53:41.828Z,1002.82
2018-07-11T08:54:41.853Z,1002.8
2018-07-11T08:55:41.876Z,1002.77
2018-07-11T08:56:41.899Z,1002.76
2018-07-11T08:57:41.923Z,1002.78
2018-07-11T08:58:41.947Z,1002.8
2018-07-11T08:59:41.972Z,1002.76
2018-07-11T09:00:41.994Z,1002.81
2018-07-11T09:01:42.018Z,1002.8
2018-07-11T09:02:42.128Z,1002.77
2018-07-11T09:03:42.066Z,1002.73
2018-07-11T09:04:42.089Z,1002.77
2018-07-11T09:05:42.112Z,1002.77
2018-07-11T09:06:42.141Z,1002.73
2018-07-11T09:07:42.168Z,1002.74
2018-07-11T09:08:42.185Z,1002.79
2018-07-11T09:09:42.213Z,1002.75
2018-07-11T09:10:42.251Z,1002.71
2018-07-11T09:11:42.257Z,1002.74
2018-07-11T09:12:42.281Z,1002.76
2018-07-11T09:13:42.304Z,1002.77
2018-07-11T09:14:42.329Z,1002.79
2018-07-11T09:15:42.352Z,1002.79
2018-07-11T09:16:42.377Z,1002.81
2018-07-11T09:17:42.402Z,1002.78
2018-07-11T09:18:42.425Z,1002.77
2018-07-11T09:19:42.449Z,1002.85
2018-07-11T09:20:42.474Z,1002.84
2018-07-11T09:21:42.497Z,1002.86
2018-07-11T09:22:42.524Z,1002.9
2018-07-11T09:23:42.549Z,1002.87
2018-07-11T09:24:42.575Z,1002.91
2018-07-11T09:25:42.676Z,1002.93
2018-07-11T09:26:42.618Z,1002.9
2018-07-11T09:27:42.645Z,1002.93
2018-07-11T09:28:42.669Z,1002.95
2018-07-11T09:29:42.698Z,1002.93
2018-07-11T09:30:42.746Z,1002.91
2018-07-11T09:31:42.742Z,1002.94
2018-07-11T09:32:42.770Z,1002.94
2018-07-11T09:33:42.789Z,1002.91
2018-07-11T09:34:42.848Z,1002.93
2018-07-11T09:35:42.840Z,1002.91
2018-07-11T09:36:42.864Z,1002.87
2018-07-11T09:37:42.984Z,1002.93
2018-07-11T09:38:42.913Z,1002.92
2018-07-11T09:39:42.968Z,1002.92
2018-07-11T09:40:42.964Z,1002.92
2018-07-11T09:41:42.988Z,1002.92
2018-07-11T09:42:43.060Z,1002.98
2018-07-11T09:43:43.040Z,1002.93
2018-07-11T09:44:43.091Z,1002.97
2018-07-11T09:45:43.089Z,1002.92
2018-07-11T09:46:43.111Z,1002.95
2018-07-11T09:47:43.136Z,1002.97
2018-07-11T09:48:43.161Z,1003.01
2018-07-11T09:49:43.185Z,1002.99
2018-07-11T09:50:43.214Z,1003.02
2018-07-11T09:51:43.236Z,1003.01
2018-07-11T09:52:43.258Z,1002.98
2018-07-11T09:53:43.287Z,1002.97
2018-07-11T09:54:43.310Z,1002.95
2018-07-11T09:55:43.334Z,1002.99
2018-07-11T09:56:43.358Z,1002.96
2018-07-11T09:57:43.423Z,1002.96
2018-07-11T09:58:43.408Z,1002.97
2018-07-11T09:59:43.433Z,1002.94
2018-07-11T10:00:43.464Z,1002.94
2018-07-11T10:01:43.486Z,1002.95
2018-07-11T10:02:43.510Z,1002.95
2018-07-11T10:03:43.534Z,1002.93
2018-07-11T10:04:43.560Z,1002.95
2018-07-11T10:05:43.587Z,1002.94
2018-07-11T10:06:43.613Z,1002.97
2018-07-11T10:07:43.636Z,1002.97
2018-07-11T10:08:43.665Z,1002.95
2018-07-11T10:09:43.697Z,1002.94
2018-07-11T10:10:43.713Z,1002.94
2018-07-11T10:11:43.739Z,1002.99
2018-07-11T10:12:43.763Z,1002.99
2018-07-11T10:13:43.792Z,1002.97
2018-07-11T10:14:43.811Z,1002.99
2018-07-11T10:15:43.840Z,1002.98
2018-07-11T10:16:43.862Z,1003.05
2018-07-11T10:17:43.888Z,1003.02
2018-07-11T10:18:43.913Z,1003.01
2018-07-11T10:19:43.942Z,1002.99
2018-07-11T10:20:43.966Z,1003
2018-07-11T10:21:44.083Z,1002.99
2018-07-11T10:22:44.016Z,1003.01
2018-07-11T10:23:44.042Z,1002.98
2018-07-11T10:24:44.067Z,1002.97
2018-07-11T10:25:44.094Z,1002.99
2018-07-11T10:26:44.134Z,1003.01
2018-07-11T10:27:44.146Z,1002.96
2018-07-11T10:28:44.169Z,1002.94
2018-07-11T10:29:44.197Z,1002.95
2018-07-11T10:30:44.221Z,1002.9
2018-07-11T10:31:44.247Z,1002.89
2018-07-11T10:32:44.276Z,1002.93
2018-07-11T10:33:44.344Z,1002.9
2018-07-11T10:34:44.324Z,1002.91
2018-07-11T10:35:44.351Z,1002.88
2018-07-11T10:36:44.378Z,1002.86
2018-07-11T10:37:44.402Z,1002.82
2018-07-11T10:38:44.428Z,1002.83
2018-07-11T10:39:44.454Z,1002.86
2018-07-11T10:40:44.481Z,1002.86
2018-07-11T10:41:44.507Z,1002.83
2018-07-11T10:42:44.533Z,1002.84
2018-07-11T10:43:44.561Z,1002.83
2018-07-11T10:44:44.584Z,1002.87
2018-07-11T10:45:44.612Z,1002.8
2018-07-11T10:46:44.636Z,1002.81
2018-07-11T10:47:44.677Z,1002.81
2018-07-11T10:48:44.688Z,1002.81
2018-07-11T10:49:44.716Z,1002.78
2018-07-11T10:50:44.741Z,1002.77
2018-07-11T10:51:44.768Z,1002.73
2018-07-11T10:52:44.794Z,1002.74
2018-07-11T10:53:44.819Z,1002.76
2018-07-11T10:54:44.847Z,1002.74
2018-07-11T10:55:44.874Z,1002.76
2018-07-11T10:56:44.900Z,1002.75
2018-07-11T10:57:45.116Z,1002.79
2018-07-11T10:58:44.952Z,1002.78
2018-07-11T10:59:44.994Z,1002.78
2018-07-11T11:01:05.030Z,1002.78
2018-07-11T11:01:45.032Z,1002.86
2018-07-11T11:02:45.100Z,1002.86
2018-07-11T11:03:45.083Z,1002.83
2018-07-11T11:04:45.137Z,1002.87
2018-07-11T11:05:45.136Z,1002.9
2018-07-11T11:06:45.164Z,1002.83
2018-07-11T11:07:45.196Z,1002.87
2018-07-11T11:08:45.216Z,1002.86
2018-07-11T11:09:45.244Z,1002.85
2018-07-11T11:10:45.269Z,1002.84
2018-07-11T11:11:45.295Z,1002.87
2018-07-11T11:12:45.320Z,1002.85
2018-07-11T11:13:45.347Z,1002.9
2018-07-11T11:14:45.374Z,1002.89
2018-07-11T11:15:45.401Z,1002.85
2018-07-11T11:16:45.426Z,1002.86
2018-07-11T11:17:45.453Z,1002.87
2018-07-11T11:18:45.482Z,1002.88
2018-07-11T11:19:45.505Z,1002.87
2018-07-11T11:20:45.532Z,1002.88
2018-07-11T11:21:45.559Z,1002.88
2018-07-11T11:22:45.586Z,1002.87
2018-07-11T11:23:45.612Z,1002.87
2018-07-11T11:24:45.641Z,1002.86
2018-07-11T11:25:45.731Z,1002.86
2018-07-11T11:26:45.692Z,1002.83
2018-07-11T11:27:45.717Z,1002.82
2018-07-11T11:28:45.745Z,1002.79
2018-07-11T11:29:45.775Z,1002.82
2018-07-11T11:30:45.798Z,1002.76
2018-07-11T11:31:45.825Z,1002.8
2018-07-11T11:32:45.851Z,1002.78
2018-07-11T11:33:45.879Z,1002.79
2018-07-11T11:34:45.904Z,1002.78
2018-07-11T11:35:46.015Z,1002.75
2018-07-11T11:36:45.960Z,1002.79
2018-07-11T11:37:45.986Z,1002.76
2018-07-11T11:38:46.013Z,1002.78
2018-07-11T11:39:46.041Z,1002.74
2018-07-11T11:40:46.067Z,1002.77
2018-07-11T11:41:46.360Z,1002.73
2018-07-11T11:42:46.250Z,1002.75
2018-07-11T11:43:46.260Z,1002.76
2018-07-11T11:44:46.220Z,1002.76
2018-07-11T11:45:46.229Z,1002.76
2018-07-11T11:46:46.229Z,1002.76
2018-07-11T11:47:46.256Z,1002.72
2018-07-11T11:48:46.283Z,1002.7
2018-07-11T11:49:46.310Z,1002.69
2018-07-11T11:50:46.338Z,1002.68
2018-07-11T11:51:46.467Z,1002.69
2018-07-11T11:52:46.482Z,1002.68
2018-07-11T11:53:46.418Z,1002.69
2018-07-11T11:54:46.447Z,1002.7
2018-07-11T11:55:46.477Z,1002.73
2018-07-11T11:56:46.502Z,1002.71
2018-07-11T11:57:46.531Z,1002.68
2018-07-11T11:58:46.556Z,1002.66
2018-07-11T11:59:46.583Z,1002.62
2018-07-11T12:00:46.611Z,1002.68
2018-07-11T12:01:46.709Z,1002.66
2018-07-11T12:02:46.674Z,1002.65
2018-07-11T12:03:46.695Z,1002.69
2018-07-11T12:04:46.721Z,1002.67
2018-07-11T12:05:46.751Z,1002.68
2018-07-11T12:06:46.780Z,1002.67
2018-07-11T12:07:46.807Z,1002.67
2018-07-11T12:08:46.831Z,1002.69